Terminal Aerodrome Forecast
Issued by NWS

Home | Current Version | Previous Version | Text Only | Print | Product List | Glossary Off
Versions: 1 2 3 4 5 6 7 8 9 10 11 12 13 14 15 16 17 18

000
FTUS43 KMPX 192300
TAFRWF
TAF
KRWF 192339Z 2000/2024 29011G20KT P6SM SCT026 BKN040
     FM200200 27008KT P6SM SCT030
     FM201400 30011G16KT P6SM SCT040=

USA.gov is the U.S. government's official web portal to all federal, state and local government web resources and services.